createdAt,value
2018-12-16T00:00:36.329Z,15.40
2018-12-16T00:01:14.909Z,17.27
2018-12-16T00:01:49.111Z,17.17
2018-12-16T00:02:23.489Z,15.78
2018-12-16T00:02:58.029Z,14.55
2018-12-16T00:03:32.429Z,14.70
2018-12-16T00:04:06.749Z,13.80
2018-12-16T00:04:46.681Z,13.62
2018-12-16T00:05:18.009Z,14.30
2018-12-16T00:05:52.537Z,15.18
2018-12-16T00:06:27.011Z,14.78
2018-12-16T00:07:01.529Z,13.58
2018-12-16T00:07:35.969Z,14.45
2018-12-16T00:08:10.709Z,13.68
2018-12-16T00:08:45.309Z,14.98
2018-12-16T00:09:19.669Z,14.20
2018-12-16T00:09:54.269Z,14.98
2018-12-16T00:10:28.949Z,15.40
2018-12-16T00:11:03.490Z,15.20
2018-12-16T00:11:37.910Z,15.10
2018-12-16T00:12:12.249Z,12.93
2018-12-16T00:12:46.890Z,12.98
2018-12-16T00:13:21.549Z,13.75
2018-12-16T00:13:56.150Z,14.43
2018-12-16T00:14:30.671Z,13.43
2018-12-16T00:15:05.755Z,13.98
2018-12-16T00:15:40.289Z,13.30
2018-12-16T00:16:14.889Z,13.03
2018-12-16T00:16:49.490Z,14.13
2018-12-16T00:17:23.989Z,14.13
2018-12-16T00:17:58.771Z,13.72
2018-12-16T00:18:33.909Z,14.15
2018-12-16T00:19:08.529Z,13.55
2018-12-16T00:19:42.829Z,14.58
2018-12-16T00:20:17.570Z,13.20
2018-12-16T00:20:52.509Z,12.82
2018-12-16T00:21:27.410Z,14.13
2018-12-16T00:22:01.969Z,13.28
2018-12-16T00:22:36.509Z,14.03
2018-12-16T00:23:11.050Z,14.43
2018-12-16T00:23:45.529Z,13.95
2018-12-16T00:24:20.119Z,11.95
2018-12-16T00:24:54.469Z,13.53
2018-12-16T00:25:29.109Z,12.73
2018-12-16T00:26:03.798Z,15.15
2018-12-16T00:26:49.210Z,15.70
2018-12-16T00:27:23.870Z,12.35
2018-12-16T00:27:58.252Z,14.50
2018-12-16T00:28:32.830Z,14.05
2018-12-16T00:29:07.570Z,14.58
2018-12-16T00:29:42.132Z,14.00
2018-12-16T00:30:16.629Z,14.63
2018-12-16T00:30:51.289Z,13.68
2018-12-16T00:31:25.870Z,15.13
2018-12-16T00:32:00.538Z,14.07
2018-12-16T00:32:35.130Z,14.00
2018-12-16T00:33:09.749Z,13.85
2018-12-16T00:33:44.483Z,13.98
2018-12-16T00:34:19.370Z,14.30
2018-12-16T00:34:53.889Z,13.48
2018-12-16T00:35:28.469Z,13.08
2018-12-16T00:36:04.049Z,13.83
2018-12-16T00:36:45.790Z,13.98
2018-12-16T00:37:20.349Z,13.88
2018-12-16T00:37:54.889Z,14.38
2018-12-16T00:38:29.149Z,14.05
2018-12-16T00:39:04.512Z,13.90
2018-12-16T00:39:39.150Z,12.18
2018-12-16T00:40:13.829Z,14.15
2018-12-16T00:40:48.429Z,13.10
2018-12-16T00:41:23.069Z,13.85
2018-12-16T00:41:57.678Z,13.85
2018-12-16T00:42:32.391Z,13.95
2018-12-16T00:43:06.969Z,13.85
2018-12-16T00:43:41.649Z,13.75
2018-12-16T00:44:16.210Z,14.73
2018-12-16T00:44:51.110Z,15.15
2018-12-16T00:45:25.730Z,14.30
2018-12-16T00:46:00.390Z,14.50
2018-12-16T00:46:35.091Z,14.80
2018-12-16T00:47:09.770Z,15.90
2018-12-16T00:47:44.450Z,17.75
2018-12-16T00:48:19.009Z,15.08
2018-12-16T00:48:53.449Z,19.25
2018-12-16T00:49:28.209Z,15.32
2018-12-16T00:50:02.769Z,15.93
2018-12-16T00:50:37.349Z,15.50
2018-12-16T00:51:11.850Z,13.70
2018-12-16T00:51:46.370Z,15.53
2018-12-16T00:52:20.931Z,14.60
2018-12-16T00:52:55.549Z,13.28
2018-12-16T00:53:30.190Z,13.50
2018-12-16T00:54:04.930Z,14.28
2018-12-16T00:54:39.650Z,15.98
2018-12-16T00:55:14.409Z,17.20
2018-12-16T00:55:48.930Z,15.70
2018-12-16T00:56:23.658Z,16.40
2018-12-16T00:56:58.471Z,13.90
2018-12-16T00:57:33.050Z,15.53
2018-12-16T00:58:07.730Z,14.68
2018-12-16T00:58:42.310Z,14.43
2018-12-16T00:59:16.830Z,14.93
2018-12-16T00:59:51.250Z,14.45
2018-12-16T01:00:26.010Z,14.43
2018-12-16T01:01:00.618Z,14.98
2018-12-16T01:01:35.277Z,15.48
2018-12-16T01:02:15.570Z,14.83
2018-12-16T01:02:50.257Z,14.70
2018-12-16T01:03:24.850Z,15.43
2018-12-16T01:03:59.473Z,14.83
2018-12-16T01:04:34.111Z,14.63
2018-12-16T01:05:08.929Z,14.80
2018-12-16T01:05:43.450Z,14.98
2018-12-16T01:06:18.150Z,15.98
2018-12-16T01:06:52.729Z,14.20
2018-12-16T01:07:30.269Z,19.27
2018-12-16T01:08:04.990Z,17.98
2018-12-16T01:08:39.669Z,18.80
2018-12-16T01:09:14.569Z,17.17
2018-12-16T01:09:49.246Z,16.95
2018-12-16T01:10:23.897Z,14.83
2018-12-16T01:10:58.530Z,15.48
2018-12-16T01:11:33.244Z,16.17
2018-12-16T01:12:07.749Z,15.35
2018-12-16T01:12:42.449Z,17.60
2018-12-16T01:13:17.009Z,19.85
2018-12-16T01:13:51.589Z,20.32
2018-12-16T01:14:26.153Z,15.72
2018-12-16T01:15:00.809Z,14.50
2018-12-16T01:15:35.789Z,14.23
2018-12-16T01:16:10.569Z,15.08
2018-12-16T01:16:45.089Z,14.10
2018-12-16T01:17:19.790Z,15.43
2018-12-16T01:17:54.489Z,13.70
2018-12-16T01:18:29.110Z,13.05
2018-12-16T01:19:03.829Z,14.95
2018-12-16T01:19:38.490Z,13.53
2018-12-16T01:20:13.229Z,14.55
2018-12-16T01:20:47.890Z,15.75
2018-12-16T01:21:22.449Z,18.52
2018-12-16T01:21:57.069Z,17.20
2018-12-16T01:22:31.669Z,17.00
2018-12-16T01:23:06.270Z,18.17
2018-12-16T01:23:40.957Z,20.00
2018-12-16T01:24:15.569Z,17.92
2018-12-16T01:24:50.169Z,24.45
2018-12-16T01:25:24.730Z,17.98
2018-12-16T01:25:59.389Z,22.90
2018-12-16T01:26:33.929Z,20.68
2018-12-16T01:27:08.511Z,19.90
2018-12-16T01:27:42.972Z,17.67
2018-12-16T01:28:17.610Z,17.20
2018-12-16T01:28:52.209Z,19.87
2018-12-16T01:29:26.729Z,20.12
2018-12-16T01:30:01.251Z,21.35
2018-12-16T01:30:35.830Z,23.50
2018-12-16T01:31:10.373Z,23.50
2018-12-16T01:31:45.140Z,22.85
2018-12-16T01:32:19.930Z,21.30
2018-12-16T01:32:54.629Z,16.45
2018-12-16T01:33:29.749Z,18.07
2018-12-16T01:34:04.349Z,17.07
2018-12-16T01:34:38.990Z,19.75
2018-12-16T01:35:13.672Z,19.23
2018-12-16T01:35:48.472Z,16.10
2018-12-16T01:36:23.010Z,17.23
2018-12-16T01:36:57.729Z,17.12
2018-12-16T01:37:32.312Z,17.80
2018-12-16T01:38:06.909Z,18.62
2018-12-16T01:38:41.589Z,18.25
2018-12-16T01:39:16.429Z,17.92
2018-12-16T01:39:51.249Z,16.00
2018-12-16T01:40:25.749Z,16.20
2018-12-16T01:41:00.409Z,17.65
2018-12-16T01:41:35.029Z,18.67
2018-12-16T01:42:09.691Z,17.55
2018-12-16T01:42:44.329Z,16.62
2018-12-16T01:43:18.810Z,17.67
2018-12-16T01:43:53.729Z,18.20
2018-12-16T01:44:28.389Z,16.35
2018-12-16T01:45:03.029Z,17.15
2018-12-16T01:45:37.611Z,17.02
2018-12-16T01:46:12.189Z,16.97
2018-12-16T01:46:46.729Z,14.87
2018-12-16T01:47:21.329Z,14.53
2018-12-16T01:47:55.929Z,15.43
2018-12-16T01:48:30.489Z,14.95
2018-12-16T01:49:05.136Z,15.65
2018-12-16T01:49:39.829Z,16.20
2018-12-16T01:50:14.449Z,14.78
2018-12-16T01:50:49.037Z,14.55
2018-12-16T01:51:23.670Z,14.75
2018-12-16T01:51:58.309Z,14.18
2018-12-16T01:52:32.789Z,14.75
2018-12-16T01:53:07.409Z,13.88
2018-12-16T01:53:41.929Z,15.00
2018-12-16T01:54:16.694Z,14.47
2018-12-16T01:54:51.389Z,14.35
2018-12-16T01:55:25.809Z,14.47
2018-12-16T01:56:00.429Z,15.15
2018-12-16T01:56:34.989Z,14.05
2018-12-16T01:57:09.590Z,14.98
2018-12-16T01:57:44.129Z,14.83
2018-12-16T01:58:18.609Z,15.55
2018-12-16T01:58:53.215Z,14.63
2018-12-16T01:59:27.909Z,16.75
2018-12-16T02:00:02.629Z,16.50
2018-12-16T02:00:37.172Z,16.07
2018-12-16T02:01:11.649Z,18.37
2018-12-16T02:01:51.410Z,16.32
2018-12-16T02:02:26.109Z,16.95
2018-12-16T02:03:00.689Z,14.55
2018-12-16T02:03:35.249Z,16.50
2018-12-16T02:04:09.837Z,16.02
2018-12-16T02:04:44.571Z,15.65
2018-12-16T02:05:19.269Z,15.23
2018-12-16T02:05:53.890Z,15.10
2018-12-16T02:06:28.450Z,15.45
2018-12-16T02:07:03.129Z,14.95
2018-12-16T02:07:37.729Z,14.68
2018-12-16T02:08:12.189Z,13.62
2018-12-16T02:08:46.830Z,14.47
2018-12-16T02:09:21.617Z,14.53
2018-12-16T02:09:56.290Z,15.23
2018-12-16T02:10:30.929Z,15.43
2018-12-16T02:11:05.650Z,14.60
2018-12-16T02:11:40.351Z,14.53
2018-12-16T02:12:15.134Z,14.50
2018-12-16T02:12:49.673Z,14.53
2018-12-16T02:13:24.329Z,14.43
2018-12-16T02:13:58.969Z,15.05
2018-12-16T02:14:33.709Z,15.20
2018-12-16T02:15:08.409Z,14.68
2018-12-16T02:15:42.929Z,14.70
2018-12-16T02:16:17.538Z,14.68
2018-12-16T02:16:52.049Z,15.95
2018-12-16T02:17:26.649Z,16.10
2018-12-16T02:18:01.209Z,15.98
2018-12-16T02:18:35.769Z,16.05
2018-12-16T02:19:10.369Z,15.55
2018-12-16T02:19:44.909Z,16.12
2018-12-16T02:20:19.749Z,16.50
2018-12-16T02:20:54.431Z,16.65
2018-12-16T02:21:29.010Z,17.90
2018-12-16T02:22:03.509Z,16.35
2018-12-16T02:22:38.049Z,14.45
2018-12-16T02:23:12.670Z,15.15
2018-12-16T02:23:47.229Z,16.35
2018-12-16T02:24:21.819Z,15.45
2018-12-16T02:24:56.429Z,15.55
2018-12-16T02:25:31.070Z,14.30
2018-12-16T02:26:05.670Z,14.45
2018-12-16T02:26:40.369Z,15.83
2018-12-16T02:27:15.149Z,15.65
2018-12-16T02:27:49.629Z,17.48
2018-12-16T02:28:24.250Z,16.37
2018-12-16T02:28:58.950Z,15.45
2018-12-16T02:29:33.490Z,15.50
2018-12-16T02:30:10.193Z,15.95
2018-12-16T02:30:44.951Z,16.52
2018-12-16T02:31:19.649Z,17.92
2018-12-16T02:31:54.153Z,16.80
2018-12-16T02:32:28.762Z,17.20
2018-12-16T02:33:03.289Z,17.02
2018-12-16T02:33:37.913Z,16.00
2018-12-16T02:34:12.659Z,17.48
2018-12-16T02:34:47.212Z,17.37
2018-12-16T02:35:21.809Z,16.70
2018-12-16T02:35:56.451Z,17.45
2018-12-16T02:36:31.071Z,17.57
2018-12-16T02:37:05.570Z,16.60
2018-12-16T02:37:40.069Z,15.75
2018-12-16T02:38:14.649Z,16.30
2018-12-16T02:38:49.190Z,14.70
2018-12-16T02:39:23.789Z,15.80
2018-12-16T02:39:58.330Z,15.85
2018-12-16T02:40:33.029Z,17.17
2018-12-16T02:41:07.797Z,15.32
2018-12-16T02:41:42.329Z,16.02
2018-12-16T02:42:17.069Z,15.15
2018-12-16T02:42:51.590Z,15.20
2018-12-16T02:43:26.269Z,15.53
2018-12-16T02:44:00.889Z,16.12
2018-12-16T02:44:35.369Z,15.93
2018-12-16T02:45:10.212Z,17.67
2018-12-16T02:45:44.773Z,16.17
2018-12-16T02:46:19.409Z,16.05
2018-12-16T02:46:54.109Z,15.15
2018-12-16T02:47:28.670Z,16.85
2018-12-16T02:48:04.208Z,17.10
2018-12-16T02:48:38.711Z,15.93
2018-12-16T02:49:13.190Z,15.25
2018-12-16T02:49:47.810Z,14.87
2018-12-16T02:50:22.350Z,18.87
2018-12-16T02:50:56.810Z,19.42
2018-12-16T02:51:31.630Z,18.65
2018-12-16T02:52:06.130Z,19.57
2018-12-16T02:52:40.689Z,17.07
2018-12-16T02:53:15.189Z,17.12
2018-12-16T02:53:49.771Z,18.02
2018-12-16T02:54:24.489Z,19.10
2018-12-16T02:54:59.030Z,17.20
2018-12-16T02:55:33.609Z,17.00
2018-12-16T02:56:08.170Z,16.60
2018-12-16T02:56:42.669Z,18.80
2018-12-16T02:57:17.310Z,17.35
2018-12-16T02:57:51.811Z,18.85
2018-12-16T02:58:26.389Z,15.30
2018-12-16T02:59:01.012Z,16.87
2018-12-16T02:59:35.613Z,16.90
2018-12-16T03:00:10.330Z,16.73
2018-12-16T03:00:44.810Z,16.95
2018-12-16T03:01:19.490Z,17.10
2018-12-16T03:01:54.050Z,16.93
2018-12-16T03:02:28.729Z,17.50
2018-12-16T03:03:03.397Z,18.10
2018-12-16T03:03:38.009Z,16.42
2018-12-16T03:04:12.511Z,16.87
2018-12-16T03:04:47.013Z,19.20
2018-12-16T03:05:21.913Z,17.82
2018-12-16T03:05:56.450Z,18.62
2018-12-16T03:06:30.951Z,17.60
2018-12-16T03:07:05.611Z,15.63
2018-12-16T03:07:40.389Z,16.52
2018-12-16T03:08:14.970Z,16.48
2018-12-16T03:08:49.609Z,17.25
2018-12-16T03:09:24.190Z,15.05
2018-12-16T03:09:58.750Z,15.85
2018-12-16T03:10:33.331Z,16.17
2018-12-16T03:11:07.911Z,15.85
2018-12-16T03:11:42.450Z,16.32
2018-12-16T03:12:17.069Z,15.72
2018-12-16T03:12:51.650Z,15.45
2018-12-16T03:13:26.290Z,17.12
2018-12-16T03:14:00.902Z,17.23
2018-12-16T03:14:35.492Z,16.62
2018-12-16T03:15:10.329Z,16.32
2018-12-16T03:15:44.929Z,15.08
2018-12-16T03:16:19.658Z,15.08
2018-12-16T03:16:54.205Z,14.85
2018-12-16T03:17:28.815Z,17.30
2018-12-16T03:18:03.474Z,16.40
2018-12-16T03:18:38.170Z,16.50
2018-12-16T03:19:12.810Z,17.05
2018-12-16T03:19:47.370Z,15.35
2018-12-16T03:20:21.651Z,16.52
2018-12-16T03:20:56.272Z,16.23
2018-12-16T03:21:31.030Z,16.50
2018-12-16T03:22:05.571Z,14.03
2018-12-16T03:22:40.071Z,15.93
2018-12-16T03:23:14.729Z,14.55
2018-12-16T03:23:49.290Z,15.45
2018-12-16T03:24:23.770Z,16.23
2018-12-16T03:24:58.329Z,15.35
2018-12-16T03:25:33.010Z,15.98
2018-12-16T03:26:07.690Z,16.62
2018-12-16T03:26:42.430Z,15.15
2018-12-16T03:27:17.071Z,15.13
2018-12-16T03:27:51.650Z,15.08
2018-12-16T03:28:26.289Z,15.63
2018-12-16T03:29:00.849Z,16.12
2018-12-16T03:29:35.509Z,15.15
2018-12-16T03:30:10.719Z,15.30
2018-12-16T03:30:45.155Z,15.38
2018-12-16T03:31:19.731Z,14.90
2018-12-16T03:31:54.314Z,14.23
2018-12-16T03:32:29.011Z,14.28
2018-12-16T03:33:03.637Z,14.38
2018-12-16T03:33:38.209Z,13.78
2018-12-16T03:34:12.789Z,15.35
2018-12-16T03:34:47.330Z,14.23
2018-12-16T03:35:21.793Z,14.93
2018-12-16T03:35:56.410Z,14.83
2018-12-16T03:36:31.093Z,14.40
2018-12-16T03:37:05.932Z,14.80
2018-12-16T03:37:40.469Z,14.05
2018-12-16T03:38:15.070Z,14.43
2018-12-16T03:38:49.737Z,13.88
2018-12-16T03:39:24.350Z,15.45
2018-12-16T03:39:58.949Z,14.63
2018-12-16T03:40:33.630Z,14.78
2018-12-16T03:41:08.270Z,14.83
2018-12-16T03:41:42.890Z,14.68
2018-12-16T03:42:17.595Z,15.65
2018-12-16T03:42:51.991Z,14.93
2018-12-16T03:43:26.790Z,14.53
2018-12-16T03:44:01.370Z,14.43
2018-12-16T03:44:36.091Z,15.40
2018-12-16T03:45:10.711Z,14.73
2018-12-16T03:45:45.230Z,14.23
2018-12-16T03:46:19.932Z,13.80
2018-12-16T03:46:54.493Z,15.15
2018-12-16T03:47:29.077Z,15.23
2018-12-16T03:48:03.595Z,15.35
2018-12-16T03:48:38.089Z,14.78
2018-12-16T03:49:12.749Z,16.70
2018-12-16T03:49:47.351Z,15.13
2018-12-16T03:50:22.190Z,15.68
2018-12-16T03:50:56.731Z,15.78
2018-12-16T03:51:31.233Z,17.12
2018-12-16T03:52:07.329Z,18.82
2018-12-16T03:52:41.889Z,16.25
2018-12-16T03:53:20.113Z,15.20
2018-12-16T03:53:52.990Z,15.80
2018-12-16T03:54:27.650Z,16.02
2018-12-16T03:55:02.221Z,14.75
2018-12-16T03:55:36.789Z,15.05
2018-12-16T03:56:11.293Z,15.08
2018-12-16T03:56:45.809Z,14.95
2018-12-16T03:57:20.478Z,15.30
2018-12-16T03:57:55.038Z,15.32
2018-12-16T03:58:29.551Z,15.70
2018-12-16T03:59:16.009Z,16.12
2018-12-16T03:59:50.690Z,16.42
2018-12-16T04:00:25.310Z,14.98
2018-12-16T04:00:59.970Z,15.28
2018-12-16T04:01:34.550Z,14.53
2018-12-16T04:02:09.150Z,16.27
2018-12-16T04:02:43.732Z,14.95
2018-12-16T04:03:18.189Z,14.75
2018-12-16T04:03:52.911Z,15.15
2018-12-16T04:04:27.930Z,14.93
2018-12-16T04:05:02.630Z,16.70
2018-12-16T04:05:37.110Z,15.40
2018-12-16T04:06:11.769Z,14.85
2018-12-16T04:06:46.311Z,14.73
2018-12-16T04:07:20.937Z,15.38
2018-12-16T04:07:55.430Z,14.58
2018-12-16T04:08:29.851Z,15.18
2018-12-16T04:09:04.750Z,15.30
2018-12-16T04:09:39.359Z,14.65
2018-12-16T04:10:13.971Z,15.05
2018-12-16T04:10:48.610Z,15.03
2018-12-16T04:11:23.338Z,15.68
2018-12-16T04:11:57.931Z,16.20
2018-12-16T04:12:32.529Z,14.80
2018-12-16T04:13:07.110Z,16.25
2018-12-16T04:13:41.691Z,15.70
2018-12-16T04:14:16.250Z,15.38
2018-12-16T04:14:50.870Z,15.25
2018-12-16T04:15:25.471Z,15.05
2018-12-16T04:15:59.950Z,14.83
2018-12-16T04:16:34.571Z,16.20
2018-12-16T04:17:09.090Z,15.20
2018-12-16T04:17:43.590Z,14.73
2018-12-16T04:18:18.273Z,14.58
2018-12-16T04:18:52.871Z,15.60
2018-12-16T04:19:27.510Z,14.00
2018-12-16T04:20:02.129Z,15.20
2018-12-16T04:20:36.772Z,14.33
2018-12-16T04:21:11.289Z,15.35
2018-12-16T04:21:45.754Z,14.95
2018-12-16T04:22:20.349Z,15.08
2018-12-16T04:22:54.912Z,14.93
2018-12-16T04:23:29.431Z,15.20
2018-12-16T04:24:04.050Z,13.95
2018-12-16T04:24:38.630Z,15.75
2018-12-16T04:25:13.133Z,15.30
2018-12-16T04:25:47.889Z,13.95
2018-12-16T04:26:22.571Z,14.87
2018-12-16T04:26:57.151Z,15.70
2018-12-16T04:27:31.789Z,14.55
2018-12-16T04:28:06.310Z,15.53
2018-12-16T04:28:40.991Z,14.68
2018-12-16T04:29:15.511Z,15.13
2018-12-16T04:29:50.115Z,16.20
2018-12-16T04:30:24.650Z,15.75
2018-12-16T04:30:59.150Z,14.98
2018-12-16T04:31:33.730Z,14.55
2018-12-16T04:32:08.270Z,14.68
2018-12-16T04:32:42.850Z,14.40
2018-12-16T04:33:17.390Z,14.68
2018-12-16T04:33:51.870Z,15.18
2018-12-16T04:34:26.610Z,14.87
2018-12-16T04:35:01.133Z,13.83
2018-12-16T04:35:35.630Z,15.68
2018-12-16T04:36:10.271Z,14.35
2018-12-16T04:36:44.854Z,15.18
2018-12-16T04:37:19.450Z,14.23
2018-12-16T04:37:54.058Z,14.38
2018-12-16T04:38:28.609Z,13.72
2018-12-16T04:39:03.390Z,14.78
2018-12-16T04:39:37.930Z,14.53
2018-12-16T04:40:12.530Z,14.55
2018-12-16T04:40:47.049Z,15.30
2018-12-16T04:41:21.650Z,14.25
2018-12-16T04:41:56.230Z,14.23
2018-12-16T04:42:30.870Z,14.43
2018-12-16T04:43:05.590Z,15.70
2018-12-16T04:43:40.130Z,13.53
2018-12-16T04:44:14.690Z,15.03
2018-12-16T04:44:49.392Z,13.90
2018-12-16T04:45:23.950Z,13.90
2018-12-16T04:45:58.510Z,14.38
2018-12-16T04:46:33.072Z,14.68
2018-12-16T04:47:07.753Z,13.68
2018-12-16T04:47:42.349Z,15.40
2018-12-16T04:48:16.892Z,15.15
2018-12-16T04:48:51.509Z,14.63
2018-12-16T04:49:26.090Z,14.03
2018-12-16T04:50:00.633Z,14.75
2018-12-16T04:50:35.211Z,15.78
2018-12-16T04:51:09.731Z,14.65
2018-12-16T04:51:44.290Z,14.85
2018-12-16T04:52:18.950Z,14.93
2018-12-16T04:52:53.470Z,15.53
2018-12-16T04:53:34.872Z,14.98
2018-12-16T04:54:04.730Z,14.73
2018-12-16T04:54:39.274Z,16.48
2018-12-16T04:55:13.950Z,16.07
2018-12-16T04:55:48.487Z,15.90
2018-12-16T04:56:23.090Z,15.88
2018-12-16T04:56:57.670Z,15.63
2018-12-16T04:57:32.211Z,16.75
2018-12-16T04:58:06.870Z,15.28
2018-12-16T04:58:41.412Z,16.15
2018-12-16T04:59:15.993Z,15.13
2018-12-16T04:59:50.569Z,16.23
2018-12-16T05:00:25.210Z,17.00
2018-12-16T05:00:59.850Z,16.10
2018-12-16T05:01:34.478Z,15.88
2018-12-16T05:02:09.112Z,15.48
2018-12-16T05:02:43.710Z,15.75
2018-12-16T05:03:18.171Z,17.25
2018-12-16T05:03:52.790Z,15.65
2018-12-16T05:04:27.330Z,17.60
2018-12-16T05:05:01.934Z,18.12
2018-12-16T05:05:36.450Z,18.25
2018-12-16T05:06:10.970Z,17.42
2018-12-16T05:06:45.529Z,18.50
2018-12-16T05:07:20.150Z,18.07
2018-12-16T05:07:54.789Z,19.87
2018-12-16T05:08:29.370Z,19.07
2018-12-16T05:09:05.629Z,20.80
2018-12-16T05:09:40.211Z,19.45
2018-12-16T05:10:25.729Z,21.57
2018-12-16T05:11:00.250Z,21.25
2018-12-16T05:11:34.809Z,21.42
2018-12-16T05:12:09.470Z,23.02
2018-12-16T05:12:43.930Z,21.52
2018-12-16T05:13:18.549Z,21.10
2018-12-16T05:13:53.111Z,20.68
2018-12-16T05:14:27.710Z,21.52
2018-12-16T05:15:02.240Z,20.80
2018-12-16T05:15:36.950Z,19.65
2018-12-16T05:16:11.509Z,21.82
2018-12-16T05:16:46.070Z,20.40
2018-12-16T05:17:20.830Z,19.77
2018-12-16T05:17:55.572Z,18.73
2018-12-16T05:18:30.178Z,17.32
2018-12-16T05:19:04.809Z,17.80
2018-12-16T05:19:39.270Z,17.77
2018-12-16T05:20:13.918Z,17.48
2018-12-16T05:20:48.430Z,17.52
2018-12-16T05:21:23.049Z,16.75
2018-12-16T05:21:57.550Z,16.15
2018-12-16T05:22:32.091Z,18.73
2018-12-16T05:23:06.750Z,18.60
2018-12-16T05:23:42.047Z,19.10
2018-12-16T05:24:16.810Z,18.87
2018-12-16T05:24:51.297Z,20.02
2018-12-16T05:25:25.873Z,20.43
2018-12-16T05:26:00.469Z,20.08
2018-12-16T05:26:35.070Z,19.65
2018-12-16T05:27:09.750Z,21.07
2018-12-16T05:27:44.550Z,20.40
2018-12-16T05:28:19.131Z,20.48
2018-12-16T05:28:53.770Z,20.60
2018-12-16T05:29:28.430Z,20.62
2018-12-16T05:30:03.030Z,19.12
2018-12-16T05:30:37.590Z,20.30
2018-12-16T05:31:12.250Z,20.23
2018-12-16T05:31:46.830Z,20.25
2018-12-16T05:32:21.470Z,19.15
2018-12-16T05:32:56.070Z,18.05
2018-12-16T05:33:30.738Z,17.42
2018-12-16T05:34:05.331Z,19.15
2018-12-16T05:34:40.690Z,18.57
2018-12-16T05:35:15.289Z,18.55
2018-12-16T05:35:49.950Z,19.35
2018-12-16T05:36:24.470Z,19.25
2018-12-16T05:36:59.050Z,18.87
2018-12-16T05:37:33.571Z,18.82
2018-12-16T05:38:08.030Z,18.85
2018-12-16T05:38:42.749Z,18.92
2018-12-16T05:39:17.310Z,20.52
2018-12-16T05:39:51.885Z,21.60
2018-12-16T05:40:26.509Z,21.65
2018-12-16T05:41:01.190Z,21.73
2018-12-16T05:41:35.770Z,21.37
2018-12-16T05:42:10.250Z,22.80
2018-12-16T05:42:44.830Z,22.25
2018-12-16T05:43:19.490Z,22.58
2018-12-16T05:43:54.310Z,22.52
2018-12-16T05:44:28.891Z,25.43
2018-12-16T05:45:03.390Z,26.00
2018-12-16T05:45:38.018Z,26.50
2018-12-16T05:46:12.549Z,25.32
2018-12-16T05:46:47.109Z,25.50
2018-12-16T05:47:21.770Z,24.57
2018-12-16T05:47:56.250Z,23.83
2018-12-16T05:48:30.969Z,22.37
2018-12-16T05:49:05.589Z,21.48
2018-12-16T05:49:40.249Z,19.92
2018-12-16T05:50:15.150Z,21.82
2018-12-16T05:50:49.709Z,21.62
2018-12-16T05:51:24.351Z,21.45
2018-12-16T05:51:58.869Z,21.55
2018-12-16T05:52:33.470Z,21.33
2018-12-16T05:53:07.989Z,20.97
2018-12-16T05:53:48.397Z,22.32
2018-12-16T05:54:19.150Z,22.35
2018-12-16T05:54:53.749Z,21.50
2018-12-16T05:55:28.294Z,20.05
2018-12-16T05:56:02.829Z,20.60
2018-12-16T05:56:37.609Z,21.07
2018-12-16T05:57:12.213Z,21.70
2018-12-16T05:57:46.790Z,20.23
2018-12-16T05:58:21.409Z,20.60
2018-12-16T05:58:56.030Z,19.40
2018-12-16T05:59:30.729Z,21.42
2018-12-16T06:00:06.190Z,20.23
2018-12-16T06:00:40.869Z,20.90
2018-12-16T06:01:15.490Z,20.77
2018-12-16T06:01:50.049Z,21.85
2018-12-16T06:02:24.749Z,20.23
2018-12-16T06:02:59.389Z,21.97
2018-12-16T06:03:34.149Z,21.35
2018-12-16T06:04:08.669Z,21.37
2018-12-16T06:04:43.277Z,22.17
2018-12-16T06:05:17.889Z,23.20
2018-12-16T06:05:52.412Z,22.17
2018-12-16T06:06:27.230Z,22.45
2018-12-16T06:07:01.729Z,21.80
2018-12-16T06:07:36.229Z,21.35
2018-12-16T06:08:10.829Z,21.57
2018-12-16T06:08:45.349Z,21.65
2018-12-16T06:09:19.792Z,21.50
2018-12-16T06:09:54.498Z,22.70
2018-12-16T06:10:29.189Z,21.23
2018-12-16T06:11:03.798Z,23.22
2018-12-16T06:11:38.349Z,22.85
2018-12-16T06:12:12.949Z,23.38
2018-12-16T06:12:47.529Z,23.00
2018-12-16T06:13:22.157Z,23.10
2018-12-16T06:13:57.182Z,22.32
2018-12-16T06:14:31.809Z,22.50
2018-12-16T06:15:06.490Z,21.40
2018-12-16T06:15:41.115Z,22.07
2018-12-16T06:16:15.900Z,21.97
2018-12-16T06:16:50.594Z,23.32
2018-12-16T06:17:25.235Z,21.95
2018-12-16T06:17:59.922Z,24.25
2018-12-16T06:18:34.554Z,23.57
2018-12-16T06:19:09.095Z,22.90
2018-12-16T06:19:43.615Z,24.10
2018-12-16T06:20:18.474Z,24.75
2018-12-16T06:20:53.074Z,25.25
2018-12-16T06:21:27.716Z,26.33
2018-12-16T06:22:02.374Z,25.57
2018-12-16T06:22:37.234Z,25.55
2018-12-16T06:23:11.755Z,25.23
2018-12-16T06:23:46.465Z,24.75
2018-12-16T06:24:21.123Z,25.35
2018-12-16T06:24:55.895Z,24.85
2018-12-16T06:25:30.601Z,24.85
2018-12-16T06:26:05.195Z,24.45
2018-12-16T06:26:41.073Z,25.88
2018-12-16T06:27:15.676Z,24.35
2018-12-16T06:27:50.294Z,28.67
2018-12-16T06:28:24.815Z,26.50
2018-12-16T06:28:59.274Z,26.93
2018-12-16T06:29:33.936Z,30.50
2018-12-16T06:30:09.074Z,29.48
2018-12-16T06:30:43.974Z,29.23
2018-12-16T06:31:18.794Z,28.30
2018-12-16T06:31:53.454Z,29.80
2018-12-16T06:32:28.174Z,28.47
2018-12-16T06:33:02.834Z,26.85
2018-12-16T06:33:37.316Z,27.17
2018-12-16T06:34:11.914Z,27.93
2018-12-16T06:34:46.514Z,26.68
2018-12-16T06:35:21.234Z,27.22
2018-12-16T06:35:55.994Z,26.17
2018-12-16T06:36:30.574Z,26.48
2018-12-16T06:37:05.214Z,24.67
2018-12-16T06:37:39.654Z,25.65
2018-12-16T06:38:14.294Z,25.27
2018-12-16T06:38:48.894Z,24.02
2018-12-16T06:39:23.642Z,24.95
2018-12-16T06:39:58.275Z,25.70
2018-12-16T06:40:32.814Z,25.75
2018-12-16T06:41:07.454Z,25.30
2018-12-16T06:41:41.974Z,24.67
2018-12-16T06:42:16.655Z,26.93
2018-12-16T06:42:51.334Z,27.93
2018-12-16T06:43:25.894Z,27.05
2018-12-16T06:44:00.614Z,26.80
2018-12-16T06:44:35.173Z,24.85
2018-12-16T06:45:09.774Z,23.52
2018-12-16T06:45:44.514Z,24.65
2018-12-16T06:46:19.254Z,22.45
2018-12-16T06:46:53.936Z,22.80
2018-12-16T06:47:28.722Z,23.15
2018-12-16T06:48:03.354Z,24.45
2018-12-16T06:48:38.209Z,22.58
2018-12-16T06:49:12.728Z,22.75
2018-12-16T06:49:47.168Z,22.85
2018-12-16T06:50:21.788Z,23.32
2018-12-16T06:50:56.268Z,22.90
2018-12-16T06:51:31.068Z,23.32
2018-12-16T06:52:05.628Z,23.02
2018-12-16T06:52:40.348Z,24.02
2018-12-16T06:53:15.036Z,22.80
2018-12-16T06:53:49.588Z,22.98
2018-12-16T06:54:24.348Z,21.12
2018-12-16T06:54:58.888Z,21.23
2018-12-16T06:55:33.488Z,22.42
2018-12-16T06:56:07.992Z,20.97
2018-12-16T06:56:42.688Z,19.57
2018-12-16T06:57:17.408Z,21.35
2018-12-16T06:57:51.948Z,20.62
2018-12-16T06:58:26.609Z,20.05
2018-12-16T06:59:01.269Z,21.60
2018-12-16T06:59:36.048Z,22.80
2018-12-16T07:00:10.988Z,19.80
2018-12-16T07:00:45.588Z,21.95
2018-12-16T07:01:20.148Z,19.92
2018-12-16T07:01:54.909Z,20.75
2018-12-16T07:02:29.468Z,21.37
2018-12-16T07:03:04.109Z,20.00
2018-12-16T07:03:38.686Z,20.80
2018-12-16T07:04:13.426Z,20.20
2018-12-16T07:04:47.986Z,20.45
2018-12-16T07:05:22.994Z,21.85
2018-12-16T07:05:57.615Z,21.48
2018-12-16T07:06:32.166Z,20.50
2018-12-16T07:07:06.986Z,20.65
2018-12-16T07:07:41.586Z,21.15
2018-12-16T07:08:16.234Z,19.82
2018-12-16T07:08:50.906Z,21.60
2018-12-16T07:09:25.506Z,20.08
2018-12-16T07:10:00.128Z,19.95
2018-12-16T07:10:34.766Z,20.40
2018-12-16T07:11:09.437Z,19.10
2018-12-16T07:11:44.230Z,20.85
2018-12-16T07:12:19.146Z,18.80
2018-12-16T07:12:53.973Z,19.60
2018-12-16T07:13:28.610Z,18.23
2018-12-16T07:14:03.389Z,21.12
2018-12-16T07:14:37.929Z,19.15
2018-12-16T07:15:12.591Z,19.35
2018-12-16T07:15:47.229Z,19.80
2018-12-16T07:16:21.869Z,18.45
2018-12-16T07:16:56.603Z,19.95
2018-12-16T07:17:31.426Z,20.77
2018-12-16T07:18:06.037Z,19.55
2018-12-16T07:18:40.731Z,21.05
2018-12-16T07:19:15.334Z,19.02
2018-12-16T07:19:49.989Z,20.48
2018-12-16T07:20:24.673Z,18.80
2018-12-16T07:20:59.414Z,18.52
2018-12-16T07:21:34.103Z,19.85
2018-12-16T07:22:08.674Z,20.52
2018-12-16T07:22:43.483Z,18.62
2018-12-16T07:23:17.953Z,19.15
2018-12-16T07:23:52.602Z,20.52
2018-12-16T07:24:27.175Z,18.67
2018-12-16T07:25:01.933Z,19.50
2018-12-16T07:25:36.494Z,19.23
2018-12-16T07:26:11.134Z,19.23
2018-12-16T07:26:45.763Z,19.65
2018-12-16T07:27:20.361Z,19.95